createdAt,value
2018-10-03T00:01:54.946Z,4.73
2018-10-03T00:04:22.787Z,6.50
2018-10-03T00:06:50.619Z,5.80
2018-10-03T00:09:19.214Z,5.70
2018-10-03T00:11:47.023Z,9.60
2018-10-03T00:14:14.864Z,4.23
2018-10-03T00:16:42.786Z,8.60
2018-10-03T00:19:10.620Z,5.87
2018-10-03T00:21:38.481Z,5.43
2018-10-03T00:24:06.388Z,4.27
2018-10-03T00:26:34.225Z,10.33
2018-10-03T00:29:02.427Z,3.70
2018-10-03T00:31:30.231Z,3.83
2018-10-03T00:33:58.107Z,3.83
2018-10-03T00:36:25.997Z,9.10
2018-10-03T00:38:54.595Z,5.23
2018-10-03T00:41:22.427Z,7.90
2018-10-03T00:43:50.294Z,5.00
2018-10-03T00:46:18.148Z,5.97
2018-10-03T00:48:46.000Z,3.60
2018-10-03T00:51:14.150Z,3.70
2018-10-03T00:53:42.318Z,3.70
2018-10-03T00:56:10.236Z,4.43
2018-10-03T00:58:38.146Z,3.10
2018-10-03T01:01:06.296Z,6.47
2018-10-03T01:03:34.108Z,5.67
2018-10-03T01:06:01.969Z,3.80
2018-10-03T01:08:29.827Z,5.17
2018-10-03T01:10:57.655Z,5.57
2018-10-03T01:13:25.456Z,11.20
2018-10-03T01:15:53.283Z,4.53
2018-10-03T01:18:21.090Z,4.00
2018-10-03T01:20:49.150Z,4.90
2018-10-03T01:23:17.246Z,5.87
2018-10-03T01:25:45.198Z,5.90
2018-10-03T01:28:13.379Z,3.37
2018-10-03T01:30:41.240Z,2.60
2018-10-03T01:33:09.075Z,3.17
2018-10-03T01:35:36.946Z,2.83
2018-10-03T01:38:04.867Z,2.60
2018-10-03T01:40:32.697Z,5.77
2018-10-03T01:43:00.536Z,3.30
2018-10-03T01:45:32.993Z,7.20
2018-10-03T01:48:01.589Z,2.60
2018-10-03T01:50:29.441Z,4.00
2018-10-03T01:52:57.323Z,3.13
2018-10-03T01:55:25.191Z,2.57
2018-10-03T01:57:53.008Z,4.30
2018-10-03T02:00:20.853Z,3.80
2018-10-03T02:02:48.711Z,3.57
2018-10-03T02:05:16.539Z,2.60
2018-10-03T02:07:44.678Z,3.80
2018-10-03T02:10:12.498Z,8.30
2018-10-03T02:12:40.322Z,4.47
2018-10-03T02:15:08.195Z,3.47
2018-10-03T02:17:36.014Z,3.17
2018-10-03T02:20:04.523Z,4.03
2018-10-03T02:22:32.437Z,6.27
2018-10-03T02:25:00.273Z,4.00
2018-10-03T02:27:28.164Z,3.70
2018-10-03T02:29:56.292Z,4.40
2018-10-03T02:32:24.168Z,6.50
2018-10-03T02:34:52.012Z,9.00
2018-10-03T02:37:19.898Z,10.57
2018-10-03T02:39:47.740Z,6.30
2018-10-03T02:42:15.559Z,5.80
2018-10-03T02:44:43.407Z,10.90
2018-10-03T02:47:11.305Z,9.80
2018-10-03T02:49:39.144Z,5.30
2018-10-03T02:52:07.225Z,7.43
2018-10-03T02:54:35.073Z,8.37
2018-10-03T02:57:02.905Z,6.50
2018-10-03T02:59:30.709Z,9.03
2018-10-03T03:01:58.522Z,6.70
2018-10-03T03:04:26.401Z,11.37
2018-10-03T03:06:54.244Z,8.43
2018-10-03T03:09:22.053Z,8.10
2018-10-03T03:11:49.877Z,6.53
2018-10-03T03:14:17.724Z,7.23
2018-10-03T03:16:45.632Z,6.13
2018-10-03T03:19:13.469Z,9.50
2018-10-03T03:21:41.329Z,9.10
2018-10-03T03:24:09.187Z,9.00
2018-10-03T03:26:37.034Z,6.00
2018-10-03T03:29:04.887Z,10.40
2018-10-03T03:31:32.737Z,8.03
2018-10-03T03:34:00.524Z,9.87
2018-10-03T03:36:28.377Z,8.80
2018-10-03T03:38:56.259Z,9.33
2018-10-03T03:41:24.085Z,9.27
2018-10-03T03:43:52.231Z,10.17
2018-10-03T03:46:20.054Z,9.13
2018-10-03T03:48:48.116Z,10.33
2018-10-03T03:51:15.930Z,9.87
2018-10-03T03:53:43.740Z,8.93
2018-10-03T03:56:11.872Z,7.80
2018-10-03T03:58:39.677Z,10.97
2018-10-03T04:01:07.496Z,9.67
2018-10-03T04:03:35.355Z,7.90
2018-10-03T04:06:03.222Z,8.23
2018-10-03T04:08:31.051Z,11.73
2018-10-03T04:10:59.119Z,7.10
2018-10-03T04:13:26.968Z,12.37
2018-10-03T04:15:54.846Z,15.23
2018-10-03T04:18:22.721Z,8.87
2018-10-03T04:20:50.584Z,7.83
2018-10-03T04:23:18.441Z,10.63
2018-10-03T04:25:46.271Z,6.97
2018-10-03T04:28:14.404Z,11.80
2018-10-03T04:30:42.260Z,8.03
2018-10-03T04:33:10.068Z,9.47
2018-10-03T04:35:37.945Z,8.07
2018-10-03T04:38:05.869Z,12.03
2018-10-03T04:40:33.728Z,7.27
2018-10-03T04:43:01.604Z,11.90
2018-10-03T04:45:29.428Z,11.33
2018-10-03T04:47:57.229Z,7.87
2018-10-03T04:50:25.047Z,9.10
2018-10-03T04:52:53.153Z,6.77
2018-10-03T04:55:20.965Z,8.73
2018-10-03T04:57:49.127Z,9.70
2018-10-03T05:00:17.003Z,9.47
2018-10-03T05:02:44.843Z,5.73
2018-10-03T05:05:12.715Z,9.67
2018-10-03T05:07:40.620Z,12.80
2018-10-03T05:10:08.529Z,10.03
2018-10-03T05:12:36.381Z,9.60
2018-10-03T05:15:04.284Z,13.93
2018-10-03T05:17:32.193Z,12.40
2018-10-03T05:20:00.012Z,9.90
2018-10-03T05:22:27.881Z,10.60
2018-10-03T05:24:55.792Z,14.20
2018-10-03T05:27:23.616Z,9.30
2018-10-03T05:29:51.491Z,10.00
2018-10-03T05:32:19.302Z,10.20
2018-10-03T05:34:47.426Z,8.17
2018-10-03T05:37:15.260Z,9.53
2018-10-03T05:39:43.189Z,10.60
2018-10-03T05:42:11.000Z,14.57
2018-10-03T05:44:38.918Z,11.73
2018-10-03T05:47:06.760Z,16.03
2018-10-03T05:49:34.682Z,13.63
2018-10-03T05:52:02.529Z,9.60
2018-10-03T05:54:30.344Z,7.70
2018-10-03T05:56:58.226Z,12.10
2018-10-03T05:59:26.109Z,10.30
2018-10-03T06:01:54.258Z,8.23
2018-10-03T06:04:22.147Z,11.60
2018-10-03T06:06:50.016Z,10.70
2018-10-03T06:09:17.847Z,10.07
2018-10-03T06:11:45.829Z,15.03
2018-10-03T06:14:13.717Z,8.87
2018-10-03T06:16:41.974Z,10.80
2018-10-03T06:19:09.830Z,8.80
2018-10-03T06:21:37.730Z,8.40
2018-10-03T06:24:05.587Z,7.80
2018-10-03T06:26:33.403Z,8.20
2018-10-03T06:29:01.362Z,7.73
2018-10-03T06:31:29.236Z,12.20
2018-10-03T06:33:57.097Z,9.57
2018-10-03T06:36:24.912Z,9.90
2018-10-03T06:38:52.781Z,14.50
2018-10-03T06:41:20.653Z,11.63
2018-10-03T06:43:48.496Z,11.03
2018-10-03T06:46:16.337Z,13.40
2018-10-03T06:48:44.144Z,8.63
2018-10-03T06:51:11.993Z,9.40
2018-10-03T06:53:39.851Z,10.90
2018-10-03T06:56:07.949Z,6.10
2018-10-03T06:58:35.789Z,8.83
2018-10-03T07:01:03.683Z,8.90
2018-10-03T07:03:31.540Z,12.77
2018-10-03T07:05:59.462Z,10.50
2018-10-03T07:08:27.388Z,9.53
2018-10-03T07:10:55.251Z,8.10
2018-10-03T07:13:23.113Z,9.30
2018-10-03T07:15:50.988Z,7.57
2018-10-03T07:18:18.814Z,7.97
2018-10-03T07:20:46.650Z,6.10
2018-10-03T07:23:14.469Z,6.97
2018-10-03T07:25:42.409Z,7.43
2018-10-03T07:28:10.235Z,10.97
2018-10-03T07:30:38.092Z,8.20
2018-10-03T07:33:06.109Z,4.10
2018-10-03T07:35:33.953Z,4.63
2018-10-03T07:38:01.839Z,6.30
2018-10-03T07:40:29.707Z,5.47
2018-10-03T07:42:57.581Z,6.70
2018-10-03T07:45:25.478Z,5.97
2018-10-03T07:47:53.308Z,5.77
2018-10-03T07:50:21.221Z,6.47
2018-10-03T07:52:49.070Z,5.20
2018-10-03T07:55:16.952Z,6.30
2018-10-03T07:57:44.821Z,3.70
2018-10-03T08:00:12.817Z,6.20
2018-10-03T08:02:40.690Z,5.77
2018-10-03T08:05:08.595Z,5.63
2018-10-03T08:07:36.449Z,5.67
2018-10-03T08:10:04.455Z,4.40
2018-10-03T08:12:32.236Z,5.73
2018-10-03T08:15:00.105Z,3.43
2018-10-03T08:17:28.047Z,7.10
2018-10-03T08:19:55.843Z,4.13
2018-10-03T08:22:23.712Z,8.17
2018-10-03T08:24:51.642Z,9.33
2018-10-03T08:27:19.586Z,7.40
2018-10-03T08:38:47.975Z,7.93
2018-10-03T08:41:15.737Z,2.00
2018-10-03T08:43:43.581Z,2.90
2018-10-03T08:46:11.477Z,3.23
2018-10-03T08:48:39.320Z,2.50
2018-10-03T08:51:07.198Z,5.40
2018-10-03T08:53:35.158Z,3.03
2018-10-03T08:56:03.046Z,3.37
2018-10-03T08:58:31.388Z,2.30
2018-10-03T09:00:59.135Z,2.77
2018-10-03T09:03:26.980Z,3.87
2018-10-03T09:05:54.838Z,3.87
2018-10-03T09:08:22.705Z,5.47
2018-10-03T09:10:50.797Z,3.30
2018-10-03T09:13:18.627Z,2.67
2018-10-03T09:15:46.745Z,2.40
2018-10-03T09:18:14.598Z,3.83
2018-10-03T09:20:42.481Z,2.93
2018-10-03T09:23:10.317Z,4.13
2018-10-03T09:25:38.132Z,2.90
2018-10-03T09:28:06.004Z,3.07
2018-10-03T09:30:33.838Z,2.40
2018-10-03T09:33:01.670Z,4.50
2018-10-03T09:35:29.515Z,3.50
2018-10-03T09:37:57.375Z,2.67
2018-10-03T09:40:25.275Z,2.87
2018-10-03T09:42:53.149Z,2.43
2018-10-03T09:45:21.023Z,3.43
2018-10-03T09:47:48.835Z,4.20
2018-10-03T09:50:16.714Z,3.33
2018-10-03T09:52:44.903Z,5.20
2018-10-03T09:55:12.772Z,5.20
2018-10-03T09:57:41.244Z,3.00
2018-10-03T10:00:09.111Z,3.10
2018-10-03T10:02:37.517Z,5.07
2018-10-03T10:05:05.457Z,6.40
2018-10-03T10:07:33.634Z,4.30
2018-10-03T10:10:01.467Z,5.10
2018-10-03T10:12:29.289Z,6.20
2018-10-03T10:14:57.105Z,5.20
2018-10-03T10:17:25.314Z,7.63
2018-10-03T10:19:53.171Z,3.80
2018-10-03T10:22:21.019Z,16.87
2018-10-03T10:24:48.860Z,18.67
2018-10-03T10:27:16.686Z,5.30
2018-10-03T10:29:44.502Z,5.43
2018-10-03T10:32:12.760Z,7.13
2018-10-03T10:34:40.556Z,5.90
2018-10-03T10:37:08.449Z,7.27
2018-10-03T10:39:36.334Z,7.40
2018-10-03T10:42:04.310Z,8.57
2018-10-03T10:44:32.243Z,6.23
2018-10-03T10:47:00.181Z,4.90
2018-10-03T10:49:28.040Z,5.13
2018-10-03T10:51:56.159Z,5.83
2018-10-03T10:54:24.002Z,5.00
2018-10-03T10:56:51.863Z,5.20
2018-10-03T10:59:20.067Z,6.10
2018-10-03T11:01:47.895Z,9.37
2018-10-03T11:04:15.789Z,5.80
2018-10-03T11:06:43.769Z,4.40
2018-10-03T11:09:11.549Z,6.33
2018-10-03T11:11:39.409Z,5.43
2018-10-03T11:14:07.574Z,5.80
2018-10-03T11:16:35.432Z,10.17
2018-10-03T11:19:03.268Z,8.97
2018-10-03T11:21:31.229Z,6.20
2018-10-03T11:23:59.295Z,11.73
2018-10-03T11:26:27.020Z,11.27
2018-10-03T11:28:54.892Z,6.63
2018-10-03T11:31:22.733Z,13.60
2018-10-03T11:33:50.599Z,6.70
2018-10-03T11:36:18.489Z,5.73
2018-10-03T11:38:46.377Z,9.93
2018-10-03T11:41:14.510Z,10.10
2018-10-03T11:43:42.386Z,6.20
2018-10-03T11:46:10.244Z,5.83
2018-10-03T11:48:38.089Z,6.03
2018-10-03T11:51:05.956Z,6.70
2018-10-03T11:53:33.813Z,4.60
2018-10-03T11:56:01.617Z,9.33
2018-10-03T11:58:29.516Z,11.87
2018-10-03T12:00:57.448Z,4.97
2018-10-03T12:03:25.383Z,7.83
2018-10-03T12:05:53.174Z,9.30
2018-10-03T12:08:21.032Z,6.60
2018-10-03T12:10:48.896Z,5.73
2018-10-03T12:13:16.801Z,6.40
2018-10-03T12:15:44.641Z,6.97
2018-10-03T12:18:12.799Z,10.03
2018-10-03T12:20:40.690Z,14.03
2018-10-03T12:23:08.534Z,6.33
2018-10-03T12:25:36.706Z,9.27
2018-10-03T12:28:04.781Z,6.03
2018-10-03T12:30:33.545Z,9.43
2018-10-03T12:33:01.388Z,5.83
2018-10-03T12:35:34.343Z,8.77
2018-10-03T12:38:02.635Z,9.87
2018-10-03T12:40:30.997Z,6.20
2018-10-03T12:42:58.846Z,9.07
2018-10-03T12:45:27.267Z,10.63
2018-10-03T12:47:55.331Z,10.93
2018-10-03T12:50:23.149Z,5.13
2018-10-03T12:52:50.997Z,7.83
2018-10-03T12:55:18.869Z,10.73
2018-10-03T12:57:46.979Z,5.73
2018-10-03T13:00:15.020Z,7.30
2018-10-03T13:02:42.896Z,9.53
2018-10-03T13:05:10.723Z,5.00
2018-10-03T13:07:38.546Z,7.73
2018-10-03T13:10:06.707Z,3.40
2018-10-03T13:12:34.880Z,7.30
2018-10-03T13:15:02.781Z,9.20
2018-10-03T13:17:30.609Z,7.53
2018-10-03T13:19:58.706Z,7.63
2018-10-03T13:22:26.520Z,9.77
2018-10-03T13:24:54.374Z,5.57
2018-10-03T13:27:22.267Z,11.10
2018-10-03T13:29:50.124Z,6.73
2018-10-03T13:32:17.987Z,4.93
2018-10-03T13:34:45.838Z,8.50
2018-10-03T13:37:13.747Z,5.57
2018-10-03T13:39:41.849Z,6.83
2018-10-03T13:42:09.928Z,8.77
2018-10-03T13:44:37.763Z,4.60
2018-10-03T13:47:05.371Z,6.23
2018-10-03T13:49:33.188Z,5.10
2018-10-03T13:52:01.296Z,11.87
2018-10-03T13:54:29.177Z,12.27
2018-10-03T13:56:57.317Z,9.10
2018-10-03T13:59:25.159Z,5.70
2018-10-03T14:01:53.127Z,16.30
2018-10-03T14:04:21.126Z,15.10
2018-10-03T14:06:48.985Z,10.63
2018-10-03T14:09:17.100Z,5.93
2018-10-03T14:11:44.943Z,8.97
2018-10-03T14:14:12.809Z,14.77
2018-10-03T14:16:40.672Z,6.07
2018-10-03T14:19:08.559Z,7.73
2018-10-03T14:21:36.398Z,9.53
2018-10-03T14:24:04.247Z,9.50
2018-10-03T14:26:32.149Z,10.30
2018-10-03T14:28:59.993Z,9.13
2018-10-03T14:31:27.850Z,12.30
2018-10-03T14:33:55.693Z,13.33
2018-10-03T14:36:23.560Z,11.23
2018-10-03T14:38:51.475Z,15.80
2018-10-03T14:41:19.347Z,10.77
2018-10-03T14:43:47.253Z,8.90
2018-10-03T14:46:15.109Z,18.33
2018-10-03T14:48:43.028Z,17.20
2018-10-03T14:51:10.885Z,13.30
2018-10-03T14:53:38.767Z,9.20
2018-10-03T14:56:07.305Z,10.93
2018-10-03T14:58:35.248Z,11.67
2018-10-03T15:01:03.065Z,16.90
2018-10-03T15:03:30.866Z,14.20
2018-10-03T15:05:59.020Z,14.10
2018-10-03T15:08:26.869Z,13.30
2018-10-03T15:10:54.719Z,8.87
2018-10-03T15:13:22.552Z,12.80
2018-10-03T15:15:50.501Z,16.17
2018-10-03T15:18:18.471Z,7.93
2018-10-03T15:20:46.373Z,10.23
2018-10-03T15:23:14.262Z,8.77
2018-10-03T15:25:42.174Z,13.30
2018-10-03T15:28:09.996Z,17.53
2018-10-03T15:30:37.899Z,17.20
2018-10-03T15:33:05.896Z,10.13
2018-10-03T15:35:33.881Z,20.20
2018-10-03T15:38:01.615Z,15.23
2018-10-03T15:40:29.555Z,15.47
2018-10-03T15:42:57.477Z,14.57
2018-10-03T15:45:25.365Z,7.60
2018-10-03T15:47:53.274Z,11.00
2018-10-03T15:50:21.138Z,15.30
2018-10-03T15:52:49.031Z,15.37
2018-10-03T15:55:16.898Z,9.80
2018-10-03T15:57:44.777Z,12.73
2018-10-03T16:00:12.698Z,13.20
2018-10-03T16:02:40.512Z,10.03
2018-10-03T16:05:08.432Z,12.50
2018-10-03T16:07:36.263Z,14.50
2018-10-03T16:10:04.187Z,12.47
2018-10-03T16:12:32.053Z,10.30
2018-10-03T16:14:59.957Z,14.57
2018-10-03T16:17:27.756Z,9.67
2018-10-03T16:19:55.888Z,16.83
2018-10-03T16:22:23.720Z,10.50
2018-10-03T16:24:51.531Z,12.50
2018-10-03T16:27:19.346Z,24.47
2018-10-03T16:29:47.203Z,19.20
2018-10-03T16:32:15.045Z,12.50
2018-10-03T16:34:43.874Z,10.33
2018-10-03T16:37:12.596Z,19.87
2018-10-03T16:39:41.505Z,14.53
2018-10-03T16:42:09.342Z,18.57
2018-10-03T16:44:37.195Z,14.73
2018-10-03T16:47:06.063Z,15.27
2018-10-03T16:49:34.610Z,17.80
2018-10-03T16:52:02.456Z,13.20
2018-10-03T16:54:30.991Z,14.10
2018-10-03T16:56:58.810Z,9.57
2018-10-03T16:59:26.691Z,20.60
2018-10-03T17:01:54.531Z,14.40
2018-10-03T17:04:23.192Z,11.50
2018-10-03T17:06:51.034Z,13.13
2018-10-03T17:09:19.160Z,11.30
2018-10-03T17:11:47.291Z,16.83
2018-10-03T17:14:32.112Z,13.00
2018-10-03T17:16:59.989Z,21.87
2018-10-03T17:19:28.420Z,25.90
2018-10-03T17:21:57.611Z,21.23
2018-10-03T17:24:27.304Z,9.67
2018-10-03T17:26:55.517Z,7.63
2018-10-03T17:29:23.756Z,9.07
2018-10-03T17:31:51.669Z,14.93
2018-10-03T17:34:20.256Z,15.33
2018-10-03T17:36:49.632Z,11.70
2018-10-03T17:39:17.935Z,9.23
2018-10-03T17:41:46.111Z,13.80
2018-10-03T17:44:14.882Z,9.57
2018-10-03T17:46:42.884Z,11.90
2018-10-03T17:49:11.823Z,16.00
2018-10-03T17:51:40.818Z,10.27
2018-10-03T17:54:10.586Z,28.70
2018-10-03T17:56:38.473Z,29.33
2018-10-03T17:59:07.579Z,16.53
2018-10-03T18:01:37.339Z,13.50
2018-10-03T18:04:05.288Z,14.33
2018-10-03T18:06:33.475Z,15.20
2018-10-03T18:09:01.368Z,16.97
2018-10-03T18:11:29.218Z,22.70
2018-10-03T18:13:57.628Z,19.80
2018-10-03T18:16:25.985Z,39.80
2018-10-03T18:18:53.875Z,16.67
2018-10-03T18:21:21.941Z,23.40
2018-10-03T18:23:49.844Z,22.80
2018-10-03T18:26:17.937Z,33.70
2018-10-03T18:28:45.754Z,22.00
2018-10-03T18:31:13.614Z,32.63
2018-10-03T18:33:41.564Z,11.83
2018-10-03T18:36:10.385Z,12.70
2018-10-03T18:38:38.246Z,18.53
2018-10-03T18:41:06.098Z,17.07
2018-10-03T18:43:34.174Z,13.20
2018-10-03T18:46:02.008Z,18.53
2018-10-03T18:48:29.835Z,14.43
2018-10-03T18:50:57.665Z,10.40
2018-10-03T18:53:25.530Z,9.30
2018-10-03T18:55:54.168Z,12.13
2018-10-03T18:58:23.397Z,15.17
2018-10-03T19:00:55.189Z,13.97
2018-10-03T19:03:23.800Z,19.03
2018-10-03T19:05:53.004Z,14.40
2018-10-03T19:08:21.324Z,15.70
2018-10-03T19:10:49.207Z,14.50
2018-10-03T19:13:17.685Z,15.40
2018-10-03T19:15:46.102Z,15.00
2018-10-03T19:18:14.051Z,20.07
2018-10-03T19:20:41.926Z,19.00
2018-10-03T19:23:09.745Z,16.00
2018-10-03T19:25:37.553Z,12.17
2018-10-03T19:28:07.149Z,13.83
2018-10-03T19:30:34.983Z,11.03
2018-10-03T19:33:03.121Z,13.43
2018-10-03T19:35:31.686Z,26.00
2018-10-03T19:37:59.508Z,25.83
2018-10-03T19:40:28.406Z,16.37
2018-10-03T19:42:56.292Z,14.13
2018-10-03T19:45:24.178Z,11.57
2018-10-03T19:47:58.222Z,18.97
2018-10-03T19:50:26.016Z,12.00
2018-10-03T19:52:54.228Z,19.37
2018-10-03T19:55:23.098Z,11.07
2018-10-03T19:57:51.047Z,17.77
2018-10-03T20:00:18.936Z,15.50
2018-10-03T20:02:47.477Z,18.13
2018-10-03T20:05:15.329Z,13.73
2018-10-03T20:07:43.177Z,14.30
2018-10-03T20:10:11.009Z,13.73
2018-10-03T20:12:38.878Z,16.00
2018-10-03T20:15:06.914Z,16.87
2018-10-03T20:17:35.435Z,21.93
2018-10-03T20:20:03.297Z,16.03
2018-10-03T20:22:31.179Z,14.20
2018-10-03T20:24:59.032Z,13.50
2018-10-03T20:27:27.197Z,15.57
2018-10-03T20:29:54.994Z,18.20
2018-10-03T20:32:22.854Z,14.70
2018-10-03T20:34:50.727Z,14.43
2018-10-03T20:37:18.636Z,15.50
2018-10-03T20:39:46.549Z,20.87
2018-10-03T20:42:14.450Z,18.93
2018-10-03T20:44:42.327Z,20.30
2018-10-03T20:47:10.237Z,17.43
2018-10-03T20:49:38.135Z,17.33
2018-10-03T20:52:06.078Z,16.90
2018-10-03T20:54:33.934Z,13.23
2018-10-03T20:57:01.927Z,14.10
2018-10-03T20:59:29.825Z,12.13
2018-10-03T21:01:57.725Z,12.20
2018-10-03T21:04:25.634Z,14.97
2018-10-03T21:06:53.499Z,17.60
2018-10-03T21:09:21.386Z,10.30
2018-10-03T21:11:49.339Z,19.60
2018-10-03T21:14:17.218Z,13.17
2018-10-03T21:16:45.108Z,14.50
2018-10-03T21:19:12.994Z,19.37
2018-10-03T21:21:40.895Z,22.90
2018-10-03T21:24:08.795Z,14.87
2018-10-03T21:26:36.627Z,19.33
2018-10-03T21:29:04.719Z,14.47
2018-10-03T21:31:32.671Z,22.60
2018-10-03T21:34:00.545Z,21.40
2018-10-03T21:36:28.455Z,21.00
2018-10-03T21:38:56.414Z,15.83
2018-10-03T21:41:24.298Z,15.40
2018-10-03T21:43:52.188Z,18.10
2018-10-03T21:46:20.078Z,17.70
2018-10-03T21:48:48.059Z,17.13
2018-10-03T21:51:15.937Z,12.93
2018-10-03T21:53:43.811Z,16.90
2018-10-03T21:56:11.641Z,18.10
2018-10-03T21:58:39.504Z,15.53
2018-10-03T22:01:07.524Z,25.20
2018-10-03T22:03:35.407Z,12.10
2018-10-03T22:06:03.272Z,12.70
2018-10-03T22:08:31.109Z,20.60
2018-10-03T22:10:58.942Z,13.87
2018-10-03T22:13:26.756Z,15.30
2018-10-03T22:15:54.613Z,11.00
2018-10-03T22:18:22.468Z,14.27
2018-10-03T22:20:50.306Z,12.83
2018-10-03T22:23:18.421Z,8.77
2018-10-03T22:25:46.278Z,11.33
2018-10-03T22:28:14.110Z,17.50
2018-10-03T22:30:41.924Z,16.87
2018-10-03T22:33:09.794Z,15.90
2018-10-03T22:35:37.640Z,15.30
2018-10-03T22:38:05.475Z,9.17
2018-10-03T22:40:33.340Z,11.40
2018-10-03T22:43:01.155Z,16.10
2018-10-03T22:45:28.988Z,16.60
2018-10-03T22:47:56.809Z,9.73
2018-10-03T22:50:24.652Z,13.47
2018-10-03T22:52:52.599Z,10.80
2018-10-03T22:55:20.448Z,10.53
2018-10-03T22:57:48.537Z,12.93
2018-10-03T23:00:16.462Z,11.50
2018-10-03T23:02:44.357Z,8.07
2018-10-03T23:05:12.249Z,13.03
2018-10-03T23:07:40.080Z,17.33
2018-10-03T23:10:08.322Z,19.90
2018-10-03T23:12:36.168Z,20.50
2018-10-03T23:15:04.180Z,16.43
2018-10-03T23:17:32.070Z,13.83
2018-10-03T23:19:59.932Z,21.50
2018-10-03T23:22:27.771Z,17.10
2018-10-03T23:24:55.843Z,15.57
2018-10-03T23:27:23.694Z,13.83
2018-10-03T23:29:51.568Z,9.67
2018-10-03T23:32:19.430Z,10.70
2018-10-03T23:34:47.273Z,15.17
2018-10-03T23:37:15.426Z,11.13
2018-10-03T23:39:43.265Z,13.10
2018-10-03T23:42:11.332Z,19.63
2018-10-03T23:44:39.153Z,10.73
2018-10-03T23:47:07.042Z,16.70
2018-10-03T23:49:34.937Z,15.03
2018-10-03T23:52:02.756Z,14.37
2018-10-03T23:54:30.650Z,31.03
2018-10-03T23:56:58.483Z,18.17
2018-10-03T23:59:26.331Z,22.00
